Time;durP1;ratioP1;P1;durP2;ratioP2;P2;SDS_P1;SDS_P2;PMS_P1;PMS_P2;Temp;Humidity;BMP_temperature;BMP_pressure;BME280_temperature;BME280_humidity;BME280_pressure;Samples;Min_cycle;Max_cycle;Signal;HPM_P1;HPM_P2
2021/03/22 00:01:00;;;;;;;12.93;4.65;;;4.40;99.90;;;;;;1934835;73;21081;-73
2021/03/22 00:03:26;;;;;;;15.43;4.53;;;4.40;99.90;;;;;;1933641;73;21271;-72
2021/03/22 00:05:52;;;;;;;15.93;5.20;;;4.30;99.90;;;;;;1946188;73;21083;-73
2021/03/22 00:08:19;;;;;;;17.32;5.35;;;4.20;99.90;;;;;;1922564;73;21151;-72
2021/03/22 00:10:45;;;;;;;12.55;4.58;;;4.10;99.90;;;;;;1944568;73;21083;-74
2021/03/22 00:13:11;;;;;;;9.05;4.37;;;4.00;99.90;;;;;;1939632;73;21067;-72
2021/03/22 00:15:37;;;;;;;26.05;4.78;;;3.90;99.90;;;;;;1937523;73;21141;-72
2021/03/22 00:18:03;;;;;;;7.97;4.08;;;3.80;99.90;;;;;;1940518;73;21473;-73
2021/03/22 00:20:32;;;;;;;17.45;5.40;;;3.80;99.90;;;;;;1928665;73;21090;-73
2021/03/22 00:23:01;;;;;;;18.55;4.60;;;3.60;99.90;;;;;;1947197;73;21049;-74
2021/03/22 00:25:27;;;;;;;27.73;4.70;;;3.50;99.90;;;;;;1943078;73;21149;-73
2021/03/22 00:27:53;;;;;;;10.78;4.72;;;3.50;99.90;;;;;;1931741;73;21077;-73
2021/03/22 00:30:20;;;;;;;23.73;5.28;;;3.40;99.90;;;;;;1931817;73;21089;-72
2021/03/22 00:32:46;;;;;;;22.20;5.75;;;3.40;99.90;;;;;;1948419;73;21080;-73
2021/03/22 00:35:12;;;;;;;13.35;4.35;;;3.30;99.90;;;;;;1948453;73;21168;-73
2021/03/22 00:37:38;;;;;;;14.55;4.22;;;3.30;99.90;;;;;;1940674;73;21046;-74
2021/03/22 00:40:04;;;;;;;21.27;5.17;;;3.30;99.90;;;;;;1922577;73;21067;-73
2021/03/22 00:42:30;;;;;;;17.25;4.87;;;3.30;99.90;;;;;;1939584;73;21079;-73
2021/03/22 00:44:56;;;;;;;17.40;4.30;;;3.30;99.90;;;;;;1935887;72;21133;-73
2021/03/22 00:47:22;;;;;;;22.40;5.72;;;3.20;99.90;;;;;;1946277;72;21127;-72
2021/03/22 00:49:49;;;;;;;19.95;5.35;;;3.10;99.90;;;;;;1943464;73;21138;-72
2021/03/22 00:52:15;;;;;;;11.60;4.05;;;3.10;99.90;;;;;;1934052;73;21048;-71
2021/03/22 00:54:41;;;;;;;18.00;5.03;;;3.10;99.90;;;;;;1938667;73;21141;-72
2021/03/22 00:57:07;;;;;;;9.53;3.83;;;3.00;99.90;;;;;;1949115;72;21079;-72
2021/03/22 00:59:33;;;;;;;13.68;4.92;;;3.00;99.90;;;;;;1939058;72;21079;-73
2021/03/22 01:01:59;;;;;;;12.78;5.08;;;3.00;99.90;;;;;;1949879;73;21091;-71
2021/03/22 01:04:25;;;;;;;8.25;4.12;;;3.00;99.90;;;;;;1950992;73;21553;-72
2021/03/22 01:06:51;;;;;;;8.90;3.45;;;3.00;99.90;;;;;;1926480;73;21436;-72
2021/03/22 01:09:17;;;;;;;12.28;4.60;;;3.00;99.90;;;;;;1942752;73;21507;-73
2021/03/22 01:11:44;;;;;;;22.30;4.53;;;2.90;99.90;;;;;;1926342;73;21073;-72
2021/03/22 01:14:10;;;;;;;11.20;4.37;;;3.00;99.90;;;;;;1930798;73;21145;-71
2021/03/22 01:16:36;;;;;;;17.45;5.47;;;3.10;99.90;;;;;;1933944;72;21072;-72
2021/03/22 01:19:02;;;;;;;20.35;4.45;;;3.10;99.90;;;;;;1936748;73;21150;-72
2021/03/22 01:21:28;;;;;;;14.53;4.95;;;3.10;99.90;;;;;;1921621;73;21046;-72
2021/03/22 01:23:54;;;;;;;16.42;4.67;;;3.20;99.90;;;;;;1939185;73;21079;-72
2021/03/22 01:26:20;;;;;;;36.48;4.55;;;3.30;99.90;;;;;;1947006;73;21084;-72
2021/03/22 01:28:46;;;;;;;10.70;4.30;;;3.30;99.90;;;;;;1929638;73;21204;-72
2021/03/22 01:31:13;;;;;;;12.95;4.08;;;3.30;99.90;;;;;;1939819;73;21150;-72
2021/03/22 01:33:41;;;;;;;12.37;3.98;;;3.30;99.90;;;;;;1948994;73;21578;-72
2021/03/22 01:36:07;;;;;;;16.67;4.22;;;3.30;99.90;;;;;;1937830;73;21147;-73
2021/03/22 01:38:33;;;;;;;13.03;3.98;;;3.40;99.90;;;;;;1923147;73;21043;-72
2021/03/22 01:40:59;;;;;;;15.93;4.08;;;3.40;99.90;;;;;;1948289;73;21083;-72
2021/03/22 01:43:25;;;;;;;24.70;4.35;;;3.40;99.90;;;;;;1948413;73;21087;-72
2021/03/22 01:45:51;;;;;;;9.45;3.65;;;3.50;99.90;;;;;;1941279;73;21519;-72
2021/03/22 01:48:17;;;;;;;19.42;4.33;;;3.50;99.90;;;;;;1950039;73;21512;-72
2021/03/22 01:50:43;;;;;;;26.85;4.78;;;3.50;99.90;;;;;;1940207;73;21468;-72
2021/03/22 01:53:09;;;;;;;10.82;4.10;;;3.60;99.90;;;;;;1939137;73;21048;-71
2021/03/22 01:55:36;;;;;;;7.60;3.55;;;3.70;99.90;;;;;;1937055;73;21073;-72
2021/03/22 01:58:02;;;;;;;13.68;3.98;;;3.70;99.90;;;;;;1948866;73;21083;-72
2021/03/22 02:00:28;;;;;;;9.73;4.20;;;3.70;99.90;;;;;;1938305;73;21069;-72
2021/03/22 02:02:55;;;;;;;15.38;4.17;;;3.80;99.90;;;;;;1939396;73;21095;-73
2021/03/22 02:05:21;;;;;;;11.70;3.90;;;3.80;99.90;;;;;;1949181;73;21499;-74
2021/03/22 02:07:48;;;;;;;7.97;3.62;;;3.80;99.90;;;;;;1940735;73;21486;-73
2021/03/22 02:10:15;;;;;;;13.90;4.33;;;3.80;99.90;;;;;;1947907;73;21157;-74
2021/03/22 02:12:41;;;;;;;20.17;4.05;;;3.90;99.90;;;;;;1939181;73;21138;-73
2021/03/22 02:15:07;;;;;;;18.37;3.90;;;3.80;99.90;;;;;;1946764;73;21048;-73
2021/03/22 02:17:33;;;;;;;18.50;4.10;;;3.90;99.90;;;;;;1936224;73;21119;-74
2021/03/22 02:19:59;;;;;;;16.62;3.50;;;3.80;99.90;;;;;;1939353;73;21080;-74
2021/03/22 02:22:25;;;;;;;14.98;4.20;;;3.90;99.90;;;;;;1943510;73;21087;-74
2021/03/22 02:24:51;;;;;;;17.60;3.87;;;3.90;99.90;;;;;;1938358;73;21264;-73
2021/03/22 02:27:17;;;;;;;19.30;3.77;;;3.90;99.90;;;;;;1932455;73;21484;-74
2021/03/22 02:29:44;;;;;;;10.32;3.60;;;3.90;99.90;;;;;;1923200;73;21477;-73
2021/03/22 02:32:10;;;;;;;16.37;3.52;;;3.90;99.90;;;;;;1923396;73;21042;-73
2021/03/22 02:34:36;;;;;;;9.08;3.20;;;3.90;99.90;;;;;;1919878;73;21133;-74
2021/03/22 02:37:02;;;;;;;17.30;3.37;;;3.90;99.90;;;;;;1930838;73;21070;-73
2021/03/22 02:39:28;;;;;;;20.23;3.90;;;4.00;99.90;;;;;;1938781;73;21077;-73
2021/03/22 02:41:54;;;;;;;20.25;3.55;;;3.90;99.90;;;;;;1938629;73;21142;-73
2021/03/22 02:44:20;;;;;;;14.03;3.80;;;4.00;99.90;;;;;;1942288;73;21210;-73
2021/03/22 02:46:46;;;;;;;19.25;3.55;;;4.00;99.90;;;;;;1947969;73;21044;-73
2021/03/22 02:49:12;;;;;;;13.62;3.60;;;4.00;99.90;;;;;;1948248;73;21079;-73
2021/03/22 02:51:39;;;;;;;17.25;4.25;;;4.00;99.90;;;;;;1925715;73;21166;-73
2021/03/22 02:54:05;;;;;;;8.93;2.87;;;4.00;99.90;;;;;;1927687;73;21472;-73
2021/03/22 02:56:31;;;;;;;11.48;3.12;;;4.00;99.90;;;;;;1922300;73;21580;-74
2021/03/22 02:58:57;;;;;;;19.20;2.92;;;4.00;99.90;;;;;;1939918;73;21504;-74
2021/03/22 03:01:23;;;;;;;16.52;3.87;;;4.00;99.90;;;;;;1938106;73;21092;-74
2021/03/22 03:03:50;;;;;;;10.35;3.45;;;4.00;99.90;;;;;;1941825;73;21053;-74
2021/03/22 03:06:16;;;;;;;12.03;3.12;;;4.00;99.90;;;;;;1927997;73;21083;-74
2021/03/22 03:08:42;;;;;;;9.75;3.20;;;4.00;99.90;;;;;;1926928;73;21081;-74
2021/03/22 03:11:08;;;;;;;7.20;2.40;;;3.90;99.90;;;;;;1942100;73;21420;-74
2021/03/22 03:13:34;;;;;;;9.33;3.27;;;4.00;99.90;;;;;;1944407;73;21075;-74
2021/03/22 03:16:00;;;;;;;12.95;3.60;;;4.00;99.90;;;;;;1931045;73;21149;-74
2021/03/22 03:18:26;;;;;;;20.88;4.35;;;4.00;99.90;;;;;;1926933;73;21143;-73
2021/03/22 03:20:52;;;;;;;20.85;3.37;;;4.00;99.90;;;;;;1944969;73;21045;-73
2021/03/22 03:23:19;;;;;;;11.97;3.50;;;4.00;99.90;;;;;;1945265;73;21076;-74
2021/03/22 03:25:45;;;;;;;25.75;3.25;;;4.00;99.90;;;;;;1912283;73;21077;-74
2021/03/22 03:28:11;;;;;;;11.45;3.50;;;4.10;99.90;;;;;;1944093;73;21141;-73
2021/03/22 03:30:37;;;;;;;17.25;3.27;;;4.00;99.90;;;;;;1923249;73;21149;-73
2021/03/22 03:33:03;;;;;;;14.23;3.12;;;4.00;99.90;;;;;;1936155;73;21192;-73
2021/03/22 03:35:29;;;;;;;23.12;3.05;;;4.00;99.90;;;;;;1925626;72;21131;-73
2021/03/22 03:37:55;;;;;;;10.88;2.75;;;4.00;99.90;;;;;;1918266;73;21045;-73
2021/03/22 03:40:21;;;;;;;14.85;2.83;;;3.90;99.90;;;;;;1926156;73;21072;-74
2021/03/22 03:42:48;;;;;;;12.47;3.08;;;4.00;99.90;;;;;;1932826;73;21063;-73
2021/03/22 03:45:14;;;;;;;7.00;2.47;;;4.00;99.90;;;;;;1951392;73;21153;-73
2021/03/22 03:47:40;;;;;;;15.58;2.92;;;3.90;99.90;;;;;;1939677;73;21073;-73
2021/03/22 03:50:06;;;;;;;11.75;2.98;;;4.00;99.90;;;;;;1947483;73;21071;-73
2021/03/22 03:52:32;;;;;;;17.65;2.67;;;4.00;99.90;;;;;;1941319;73;21049;-74
2021/03/22 03:54:58;;;;;;;16.65;2.95;;;4.00;99.90;;;;;;1940492;73;21145;-73
2021/03/22 03:57:24;;;;;;;13.48;3.20;;;4.00;99.90;;;;;;1928124;73;21086;-73
2021/03/22 03:59:50;;;;;;;6.72;2.35;;;4.00;99.90;;;;;;1932279;73;21194;-74
2021/03/22 04:02:17;;;;;;;15.08;2.85;;;3.90;99.90;;;;;;1929632;72;21275;-73
2021/03/22 04:04:43;;;;;;;17.57;2.95;;;3.90;99.90;;;;;;1948401;73;21146;-74
2021/03/22 04:07:09;;;;;;;14.40;2.55;;;3.80;99.90;;;;;;1940544;73;21061;-73
2021/03/22 04:09:35;;;;;;;10.32;2.65;;;3.80;99.90;;;;;;1932929;73;21487;-73
2021/03/22 04:12:01;;;;;;;8.45;2.50;;;3.90;99.90;;;;;;1938445;73;21620;-74
2021/03/22 04:14:27;;;;;;;6.65;2.08;;;3.80;99.90;;;;;;1931762;73;21563;-73
2021/03/22 04:16:54;;;;;;;8.93;2.22;;;3.80;99.90;;;;;;1929111;73;21115;-72
2021/03/22 04:19:20;;;;;;;7.62;2.80;;;3.80;99.90;;;;;;1936609;73;21492;-73
2021/03/22 04:21:46;;;;;;;8.63;2.20;;;3.80;99.90;;;;;;1929450;73;21487;-74
2021/03/22 04:24:12;;;;;;;10.32;2.17;;;3.80;99.90;;;;;;1923056;73;21570;-73
2021/03/22 04:26:38;;;;;;;19.00;2.62;;;3.90;99.90;;;;;;1930034;73;21073;-73
2021/03/22 04:29:04;;;;;;;10.08;2.45;;;3.90;99.90;;;;;;1930612;73;21048;-73
2021/03/22 04:31:30;;;;;;;21.68;2.80;;;3.80;99.90;;;;;;1924375;73;21080;-74
2021/03/22 04:33:57;;;;;;;10.85;2.20;;;3.90;99.90;;;;;;1933701;73;21081;-73
2021/03/22 04:36:23;;;;;;;9.85;2.50;;;3.90;99.90;;;;;;1932534;73;21080;-74
2021/03/22 04:38:49;;;;;;;20.12;2.85;;;3.90;99.90;;;;;;1941740;73;21085;-73
2021/03/22 04:41:15;;;;;;;11.88;2.12;;;3.90;99.90;;;;;;1938517;73;21067;-74
2021/03/22 04:43:41;;;;;;;11.80;2.33;;;3.90;99.90;;;;;;1947907;73;21044;-72
2021/03/22 04:46:07;;;;;;;6.87;2.40;;;3.90;99.90;;;;;;1924123;73;21072;-73
2021/03/22 04:48:33;;;;;;;9.50;2.70;;;3.80;99.90;;;;;;1941799;73;21507;-74
2021/03/22 04:50:59;;;;;;;6.40;2.37;;;3.80;99.90;;;;;;1942296;73;21861;-73
2021/03/22 04:53:26;;;;;;;16.32;3.00;;;3.70;99.90;;;;;;1948924;73;21197;-74
2021/03/22 04:55:52;;;;;;;12.05;2.92;;;3.80;99.90;;;;;;1948868;73;21071;-73
2021/03/22 04:58:18;;;;;;;11.97;2.80;;;3.70;99.90;;;;;;1939583;73;21076;-73
2021/03/22 05:00:44;;;;;;;4.50;1.72;;;3.70;99.90;;;;;;1921977;73;21068;-73
2021/03/22 05:03:11;;;;;;;12.18;2.50;;;3.80;99.90;;;;;;1949190;72;21084;-74
2021/03/22 05:05:37;;;;;;;6.75;2.02;;;3.80;99.90;;;;;;1929783;73;21076;-73
2021/03/22 05:08:03;;;;;;;8.05;2.58;;;3.90;99.90;;;;;;1929375;73;21476;-74
2021/03/22 05:10:29;;;;;;;10.72;2.60;;;3.90;99.90;;;;;;1945564;73;21589;-74
2021/03/22 05:12:55;;;;;;;10.43;1.85;;;3.90;99.90;;;;;;1921977;73;21079;-74
2021/03/22 05:15:21;;;;;;;6.95;1.62;;;3.90;99.90;;;;;;1941588;73;21079;-73
2021/03/22 05:17:48;;;;;;;15.83;2.90;;;3.90;99.90;;;;;;1934185;73;21472;-74
2021/03/22 05:20:14;;;;;;;12.60;1.70;;;3.90;99.90;;;;;;1939044;73;21513;-74
2021/03/22 05:22:40;;;;;;;9.23;1.90;;;4.00;99.90;;;;;;1911553;73;21499;-74
2021/03/22 05:25:06;;;;;;;8.85;1.85;;;4.00;99.90;;;;;;1923123;73;21073;-75
2021/03/22 05:27:32;;;;;;;8.15;2.00;;;4.10;99.90;;;;;;1931354;73;21150;-72
2021/03/22 05:29:58;;;;;;;10.15;2.12;;;4.00;99.90;;;;;;1939463;72;21095;-71
2021/03/22 05:32:25;;;;;;;8.70;1.98;;;4.00;99.90;;;;;;1949846;73;21040;-73
2021/03/22 05:34:51;;;;;;;10.03;2.15;;;4.10;99.90;;;;;;1916086;73;21143;-73
2021/03/22 05:37:17;;;;;;;9.15;2.55;;;4.00;99.90;;;;;;1942087;73;21144;-73
2021/03/22 05:39:43;;;;;;;7.37;1.98;;;4.00;99.90;;;;;;1947133;73;21091;-73
2021/03/22 05:42:09;;;;;;;10.48;1.52;;;4.00;99.90;;;;;;1917658;73;21565;-72
2021/03/22 05:44:35;;;;;;;9.63;2.20;;;4.10;99.90;;;;;;1932605;73;21469;-73
2021/03/22 05:47:01;;;;;;;15.95;2.67;;;4.20;99.90;;;;;;1928045;73;21500;-72
2021/03/22 05:49:27;;;;;;;8.05;1.98;;;4.20;99.90;;;;;;1942638;73;21044;-72
2021/03/22 05:51:55;;;;;;;8.88;2.00;;;4.20;99.90;;;;;;1944565;73;21196;-73
2021/03/22 05:54:21;;;;;;;10.03;1.82;;;4.20;99.90;;;;;;1925353;73;21448;-71
2021/03/22 05:56:47;;;;;;;17.50;2.40;;;4.20;99.90;;;;;;1944116;73;21531;-72
2021/03/22 05:59:14;;;;;;;15.15;2.05;;;4.30;99.90;;;;;;1938469;73;21534;-73
2021/03/22 06:01:40;;;;;;;7.95;2.42;;;4.30;99.90;;;;;;1940926;73;21143;-73
2021/03/22 06:04:06;;;;;;;8.85;1.85;;;4.30;99.90;;;;;;1940396;73;21139;-73
2021/03/22 06:06:32;;;;;;;13.75;1.87;;;4.30;99.90;;;;;;1924158;73;21152;-74
2021/03/22 06:08:58;;;;;;;16.37;1.70;;;4.40;99.90;;;;;;1915081;73;21155;-81
2021/03/22 06:11:24;;;;;;;6.67;1.60;;;4.40;99.90;;;;;;1935699;73;21135;-77
2021/03/22 06:13:50;;;;;;;8.33;1.92;;;4.40;99.90;;;;;;1948861;73;21075;-76
2021/03/22 06:16:16;;;;;;;7.95;1.80;;;4.50;99.90;;;;;;1939515;73;21075;-77
2021/03/22 06:18:43;;;;;;;10.93;1.35;;;4.60;99.90;;;;;;1950422;73;21130;-78
2021/03/22 06:21:09;;;;;;;3.85;1.45;;;4.50;99.90;;;;;;1949385;73;21496;-78
2021/03/22 06:23:35;;;;;;;7.08;1.77;;;4.50;99.90;;;;;;1941782;73;21452;-77
2021/03/22 06:26:01;;;;;;;7.08;1.52;;;4.50;99.90;;;;;;1939829;73;21078;-78
2021/03/22 06:28:27;;;;;;;9.60;1.62;;;4.50;99.90;;;;;;1937802;73;21155;-78
2021/03/22 06:30:53;;;;;;;10.23;1.83;;;4.40;99.90;;;;;;1948609;73;21067;-76
2021/03/22 06:33:19;;;;;;;3.25;1.30;;;4.40;99.90;;;;;;1939726;73;21153;-77
2021/03/22 06:35:45;;;;;;;8.48;1.62;;;4.50;99.90;;;;;;1950415;73;21146;-78
2021/03/22 06:38:12;;;;;;;9.48;1.98;;;4.50;99.90;;;;;;1947612;73;21145;-72
2021/03/22 06:40:38;;;;;;;7.80;1.65;;;4.50;99.90;;;;;;1942288;73;21037;-74
2021/03/22 06:43:04;;;;;;;12.33;1.60;;;4.60;99.90;;;;;;1931380;73;21115;-73
2021/03/22 06:45:30;;;;;;;7.22;1.25;;;4.60;99.90;;;;;;1939329;73;21141;-76
2021/03/22 06:47:56;;;;;;;6.95;1.60;;;4.60;99.90;;;;;;1948973;73;21075;-72
2021/03/22 06:50:22;;;;;;;5.92;1.65;;;4.60;99.90;;;;;;1950805;73;21152;-73
2021/03/22 06:52:49;;;;;;;3.47;1.40;;;4.60;99.90;;;;;;1942229;73;21214;-74
2021/03/22 06:55:16;;;;;;;13.22;2.02;;;4.60;99.90;;;;;;1932905;73;21103;-75
2021/03/22 06:57:44;;;;;;;8.40;1.42;;;4.60;99.90;;;;;;1938029;73;21157;-75
2021/03/22 07:00:09;;;;;;;5.95;1.80;;;4.70;99.90;;;;;;1949831;72;21251;-72
2021/03/22 07:02:36;;;;;;;16.20;2.20;;;4.70;99.90;;;;;;1941058;74;21084;-73
2021/03/22 07:05:02;;;;;;;8.68;2.10;;;4.60;99.90;;;;;;1905550;73;21088;-72
2021/03/22 07:07:28;;;;;;;13.62;1.77;;;4.60;99.90;;;;;;1924574;74;21065;-73
2021/03/22 07:09:54;;;;;;;9.98;1.62;;;4.70;99.90;;;;;;1923392;74;21151;-73
2021/03/22 07:12:20;;;;;;;10.30;1.82;;;4.70;99.90;;;;;;1924585;74;21149;-72
2021/03/22 07:14:47;;;;;;;5.33;1.80;;;4.60;99.90;;;;;;1926863;74;21073;-72
2021/03/22 07:17:13;;;;;;;7.22;1.67;;;4.70;99.90;;;;;;1920762;74;21151;-72
2021/03/22 07:19:39;;;;;;;18.95;2.25;;;4.70;99.90;;;;;;1914355;74;21046;-73
2021/03/22 07:22:05;;;;;;;6.13;1.90;;;4.70;99.90;;;;;;1930245;74;21173;-72
2021/03/22 07:24:31;;;;;;;6.92;1.65;;;4.70;99.90;;;;;;1930581;74;21148;-73
2021/03/22 07:26:58;;;;;;;14.23;1.57;;;4.70;99.90;;;;;;1921795;74;21070;-73
2021/03/22 07:29:24;;;;;;;6.47;2.20;;;4.70;99.90;;;;;;1918331;74;21082;-74
2021/03/22 07:31:50;;;;;;;20.27;1.80;;;4.80;99.90;;;;;;1929336;74;21144;-74
2021/03/22 07:34:16;;;;;;;6.30;1.45;;;4.70;99.90;;;;;;1923224;74;21075;-73
2021/03/22 07:36:42;;;;;;;13.38;2.40;;;4.80;99.90;;;;;;1924516;74;21139;-74
2021/03/22 07:39:08;;;;;;;10.13;2.42;;;4.90;99.90;;;;;;1922699;74;21043;-73
2021/03/22 07:41:34;;;;;;;9.15;2.10;;;5.00;99.90;;;;;;1928416;74;21109;-73
2021/03/22 07:44:01;;;;;;;8.78;2.08;;;4.90;99.90;;;;;;1925572;74;21061;-73
2021/03/22 07:46:27;;;;;;;11.88;2.90;;;4.90;99.90;;;;;;1919494;74;21150;-73
2021/03/22 07:48:53;;;;;;;9.20;2.05;;;4.90;99.90;;;;;;1924284;74;21075;-73
2021/03/22 07:51:19;;;;;;;5.65;2.22;;;5.00;99.90;;;;;;1917551;74;21135;-73
2021/03/22 07:53:45;;;;;;;10.28;2.55;;;5.00;99.90;;;;;;1913724;74;21030;-74
2021/03/22 07:56:12;;;;;;;14.28;2.37;;;4.90;99.90;;;;;;1920255;74;21104;-74
2021/03/22 07:58:38;;;;;;;10.35;3.27;;;4.90;99.90;;;;;;1917922;74;21184;-74
2021/03/22 08:01:04;;;;;;;15.35;2.12;;;5.00;99.90;;;;;;1932673;74;21083;-74
2021/03/22 08:03:30;;;;;;;21.87;2.40;;;4.90;99.90;;;;;;1927915;74;21148;-74
2021/03/22 08:05:56;;;;;;;10.28;2.10;;;5.00;99.90;;;;;;1931965;74;21077;-74
2021/03/22 08:08:23;;;;;;;9.43;2.25;;;5.00;99.90;;;;;;1917142;74;21483;-74
2021/03/22 08:10:50;;;;;;;9.35;3.00;;;5.10;99.90;;;;;;1923194;74;21152;-74
2021/03/22 08:13:16;;;;;;;9.03;2.22;;;5.10;99.90;;;;;;1919811;74;21044;-74
2021/03/22 08:15:42;;;;;;;8.60;2.55;;;5.10;99.90;;;;;;1920889;74;21447;-74
2021/03/22 08:18:08;;;;;;;7.97;2.08;;;5.10;99.90;;;;;;1913871;74;21530;-73
2021/03/22 08:20:34;;;;;;;14.18;2.40;;;5.30;99.90;;;;;;1927436;74;21136;-73
2021/03/22 08:23:01;;;;;;;9.43;2.08;;;5.40;99.90;;;;;;1921519;74;21076;-74
2021/03/22 08:25:27;;;;;;;12.55;2.02;;;5.40;99.90;;;;;;1913786;74;21082;-74
2021/03/22 08:27:53;;;;;;;11.45;2.40;;;5.30;99.90;;;;;;1913629;74;21069;-74
2021/03/22 08:30:19;;;;;;;12.68;2.30;;;5.20;99.90;;;;;;1932734;74;21141;-73
2021/03/22 08:32:45;;;;;;;7.58;1.92;;;5.20;99.90;;;;;;1918751;74;21075;-73
2021/03/22 08:35:12;;;;;;;5.45;1.82;;;5.40;99.90;;;;;;1923445;74;21066;-72
2021/03/22 08:37:38;;;;;;;12.70;2.10;;;5.50;99.90;;;;;;1923479;74;21200;-74
2021/03/22 08:40:04;;;;;;;8.18;2.17;;;5.50;99.90;;;;;;1931483;74;21494;-74
2021/03/22 08:42:30;;;;;;;7.85;2.08;;;5.70;99.90;;;;;;1930489;74;21079;-73
2021/03/22 08:44:57;;;;;;;12.30;1.50;;;5.70;99.90;;;;;;1930583;74;21124;-74
2021/03/22 08:47:24;;;;;;;6.00;2.12;;;5.60;99.90;;;;;;1928217;74;21139;-74
2021/03/22 08:49:50;;;;;;;10.23;1.82;;;5.70;99.90;;;;;;1918469;73;21160;-74
2021/03/22 08:52:17;;;;;;;4.92;1.80;;;5.80;99.90;;;;;;1919144;74;21075;-74
2021/03/22 08:54:43;;;;;;;10.70;2.15;;;5.90;99.90;;;;;;1933023;74;21074;-73
2021/03/22 08:57:10;;;;;;;4.95;1.60;;;6.20;99.90;;;;;;1919581;74;21461;-74
2021/03/22 08:59:36;;;;;;;9.58;1.57;;;6.20;99.90;;;;;;1920889;74;21065;-74
2021/03/22 09:02:02;;;;;;;7.95;1.47;;;6.10;99.90;;;;;;1917300;74;21127;-73
2021/03/22 09:04:29;;;;;;;6.33;1.42;;;6.00;99.90;;;;;;1916473;74;21070;-74
2021/03/22 09:06:55;;;;;;;12.93;1.75;;;5.90;99.90;;;;;;1918076;74;21089;-72
2021/03/22 09:09:21;;;;;;;6.65;1.52;;;5.90;99.90;;;;;;1913737;74;21175;-72
2021/03/22 09:11:47;;;;;;;3.05;1.32;;;6.00;99.90;;;;;;1919968;74;21066;-74
2021/03/22 09:14:13;;;;;;;7.20;1.15;;;6.00;99.90;;;;;;1913671;74;21066;-75
2021/03/22 09:16:40;;;;;;;5.40;1.25;;;6.00;99.90;;;;;;1913851;74;21065;-74
2021/03/22 09:19:06;;;;;;;3.15;1.12;;;6.10;99.90;;;;;;1924388;74;21075;-73
2021/03/22 09:21:32;;;;;;;4.85;1.20;;;6.20;99.90;;;;;;1927126;74;21079;-75
2021/03/22 09:23:59;;;;;;;8.75;1.62;;;6.20;99.90;;;;;;1920318;74;21031;-74
2021/03/22 09:26:25;;;;;;;3.72;1.20;;;6.10;99.90;;;;;;1931276;74;21137;-74
2021/03/22 09:28:53;;;;;;;3.35;1.35;;;6.00;99.90;;;;;;1923782;74;21034;-75
2021/03/22 09:31:19;;;;;;;6.05;1.40;;;5.90;99.90;;;;;;1913670;74;21549;-72
2021/03/22 09:33:45;;;;;;;6.47;1.15;;;5.80;99.90;;;;;;1920826;74;21194;-75
2021/03/22 09:36:11;;;;;;;12.18;1.72;;;5.70;99.90;;;;;;1925528;74;21135;-74
2021/03/22 09:38:37;;;;;;;6.30;1.80;;;5.80;99.90;;;;;;1915382;74;21069;-75
2021/03/22 09:41:04;;;;;;;5.65;1.65;;;6.00;99.90;;;;;;1929829;74;21078;-75
2021/03/22 09:43:30;;;;;;;8.10;1.62;;;6.10;99.90;;;;;;1917201;74;21034;-75
2021/03/22 09:45:57;;;;;;;6.05;1.70;;;6.20;99.90;;;;;;1932116;74;21051;-75
2021/03/22 09:48:24;;;;;;;2.72;1.27;;;6.40;99.90;;;;;;1918212;74;21043;-75
2021/03/22 09:50:50;;;;;;;5.65;1.40;;;6.50;99.90;;;;;;1919724;74;21043;-75
2021/03/22 09:53:16;;;;;;;10.13;1.80;;;6.70;99.90;;;;;;1913780;74;21094;-75
2021/03/22 09:55:42;;;;;;;12.05;1.98;;;6.80;99.90;;;;;;1926506;74;21070;-75
2021/03/22 09:58:08;;;;;;;7.08;1.82;;;6.80;99.90;;;;;;1923330;74;21263;-75
2021/03/22 10:00:34;;;;;;;3.80;1.12;;;6.80;99.90;;;;;;1931599;74;21070;-75
2021/03/22 10:03:00;;;;;;;8.45;1.25;;;6.80;99.90;;;;;;1927362;74;21084;-75
2021/03/22 10:05:26;;;;;;;3.87;1.00;;;6.50;99.90;;;;;;1923309;74;21071;-73
2021/03/22 10:07:53;;;;;;;4.28;1.17;;;6.40;99.90;;;;;;1927019;74;21062;-75
2021/03/22 10:10:19;;;;;;;3.33;1.55;;;6.30;99.90;;;;;;1926953;74;21144;-74
2021/03/22 10:12:45;;;;;;;1.70;0.93;;;6.20;99.90;;;;;;1920898;74;21073;-74
2021/03/22 10:15:11;;;;;;;2.98;1.07;;;6.30;99.90;;;;;;1926995;74;21082;-73
2021/03/22 10:17:37;;;;;;;2.90;1.40;;;6.30;99.90;;;;;;1927625;74;21039;-73
2021/03/22 10:20:03;;;;;;;5.75;1.65;;;6.20;99.90;;;;;;1928074;74;21523;-73
2021/03/22 10:22:29;;;;;;;4.85;1.22;;;6.10;99.90;;;;;;1927101;74;21486;-74
2021/03/22 10:24:55;;;;;;;5.30;1.70;;;6.20;99.90;;;;;;1920895;74;21587;-74
2021/03/22 10:27:22;;;;;;;9.65;2.42;;;6.30;99.90;;;;;;1926554;74;21073;-74
2021/03/22 10:29:48;;;;;;;6.78;1.92;;;6.10;99.90;;;;;;1929515;74;21069;-74
2021/03/22 10:32:15;;;;;;;5.10;1.45;;;6.00;99.90;;;;;;1925550;74;21073;-74
2021/03/22 10:34:41;;;;;;;3.72;1.37;;;6.30;99.90;;;;;;1929195;74;21128;-74
2021/03/22 10:37:07;;;;;;;7.50;1.17;;;6.30;99.90;;;;;;1915777;74;21042;-75
2021/03/22 10:39:33;;;;;;;5.20;1.17;;;6.50;99.90;;;;;;1927092;74;21058;-74
2021/03/22 10:41:59;;;;;;;6.83;1.65;;;6.60;99.90;;;;;;1917380;74;21061;-75
2021/03/22 10:44:25;;;;;;;5.55;1.60;;;6.40;99.90;;;;;;1890398;73;21054;-74
2021/03/22 10:46:52;;;;;;;2.47;1.10;;;6.50;99.90;;;;;;1925656;74;21141;-74
2021/03/22 10:49:18;;;;;;;9.15;3.75;;;6.20;99.90;;;;;;1912245;73;21065;-75
2021/03/22 10:51:44;;;;;;;13.22;1.72;;;6.20;99.90;;;;;;1922126;74;21479;-74
2021/03/22 10:54:11;;;;;;;5.28;1.30;;;6.30;99.90;;;;;;1918449;74;21132;-75
2021/03/22 10:56:37;;;;;;;2.52;1.20;;;6.40;99.90;;;;;;1926382;74;21044;-75
2021/03/22 10:59:03;;;;;;;3.37;1.55;;;6.30;99.90;;;;;;1923281;74;21057;-74
2021/03/22 11:01:29;;;;;;;3.22;1.05;;;6.20;99.90;;;;;;1934440;74;21075;-73
2021/03/22 11:03:55;;;;;;;5.83;1.30;;;6.30;99.90;;;;;;1920896;74;21118;-74
2021/03/22 11:06:21;;;;;;;8.73;1.12;;;6.30;99.90;;;;;;1923445;74;21160;-74
2021/03/22 11:08:47;;;;;;;9.25;1.07;;;6.30;99.90;;;;;;1929477;74;21038;-73
2021/03/22 11:11:15;;;;;;;4.28;1.17;;;6.20;99.90;;;;;;1919786;74;21044;-73
2021/03/22 11:13:44;;;;;;;1.72;1.00;;;6.40;99.90;;;;;;1932963;74;21153;-73
2021/03/22 11:16:10;;;;;;;10.70;1.40;;;6.60;99.90;;;;;;1930770;74;21057;-74
2021/03/22 11:18:36;;;;;;;3.77;1.47;;;6.60;99.90;;;;;;1924404;74;21094;-74
2021/03/22 11:21:02;;;;;;;4.17;1.40;;;6.50;99.90;;;;;;1934221;74;21066;-75
2021/03/22 11:23:28;;;;;;;5.75;1.30;;;6.50;99.90;;;;;;1927130;74;21074;-74
2021/03/22 11:25:54;;;;;;;3.33;1.10;;;6.50;99.90;;;;;;1922965;74;21151;-75
2021/03/22 11:28:20;;;;;;;4.47;1.22;;;6.50;99.90;;;;;;1927613;74;21148;-75
2021/03/22 11:30:46;;;;;;;6.30;1.62;;;6.60;99.90;;;;;;1919298;74;21427;-73
2021/03/22 11:33:12;;;;;;;5.12;1.32;;;6.50;99.90;;;;;;1927946;74;21580;-74
2021/03/22 11:35:39;;;;;;;9.55;1.77;;;6.80;99.90;;;;;;1933920;74;21474;-73
2021/03/22 11:38:05;;;;;;;4.15;1.22;;;6.90;99.90;;;;;;1922832;74;21490;-74
2021/03/22 11:40:31;;;;;;;5.60;1.50;;;7.10;99.90;;;;;;1924395;74;21137;-75
2021/03/22 11:42:57;;;;;;;1.95;0.88;;;7.10;99.90;;;;;;1917379;74;21139;-74
2021/03/22 11:45:23;;;;;;;5.28;1.87;;;7.30;99.90;;;;;;1919351;74;21039;-74
2021/03/22 11:47:49;;;;;;;4.20;1.12;;;7.20;99.90;;;;;;1925796;74;21067;-74
2021/03/22 11:50:15;;;;;;;9.55;1.22;;;7.20;99.90;;;;;;1916934;74;21203;-74
2021/03/22 11:52:41;;;;;;;4.45;1.30;;;7.40;99.90;;;;;;1915356;74;21065;-74
2021/03/22 11:55:08;;;;;;;5.15;1.60;;;7.50;99.90;;;;;;1915921;74;21143;-74
2021/03/22 11:57:34;;;;;;;3.33;1.12;;;7.50;99.90;;;;;;1925620;74;21065;-75
2021/03/22 12:00:01;;;;;;;3.98;1.35;;;7.70;99.90;;;;;;1935255;74;21075;-74
2021/03/22 12:02:27;;;;;;;3.08;1.20;;;7.70;99.90;;;;;;1924304;74;21062;-73
2021/03/22 12:04:53;;;;;;;3.12;1.17;;;7.80;99.90;;;;;;1926378;74;21048;-74
2021/03/22 12:07:19;;;;;;;3.25;1.42;;;7.70;99.90;;;;;;1914256;74;21462;-74
2021/03/22 12:09:45;;;;;;;6.87;1.42;;;7.40;99.90;;;;;;1926796;74;21622;-74
2021/03/22 12:12:11;;;;;;;1.92;0.80;;;7.50;99.90;;;;;;1913844;74;21530;-73
2021/03/22 12:14:37;;;;;;;3.33;0.62;;;7.50;99.90;;;;;;1923274;74;21131;-73
2021/03/22 12:17:04;;;;;;;1.82;0.85;;;7.50;99.90;;;;;;1928005;74;21110;-74
2021/03/22 12:19:30;;;;;;;2.87;1.00;;;7.60;99.90;;;;;;1934174;74;21067;-75
2021/03/22 12:21:56;;;;;;;2.05;0.85;;;7.60;99.90;;;;;;1921116;74;21133;-73
2021/03/22 12:24:22;;;;;;;1.20;0.70;;;7.50;99.90;;;;;;1934072;74;21075;-74
2021/03/22 12:26:48;;;;;;;6.92;1.15;;;7.50;99.90;;;;;;1931851;74;21077;-74
2021/03/22 12:29:15;;;;;;;4.62;0.65;;;7.40;99.90;;;;;;1920012;74;21494;-75
2021/03/22 12:31:41;;;;;;;2.90;0.98;;;7.40;99.90;;;;;;1927841;74;21476;-74
2021/03/22 12:34:07;;;;;;;2.52;0.57;;;7.20;99.90;;;;;;1917721;74;21489;-74
2021/03/22 12:36:35;;;;;;;2.58;1.00;;;7.30;99.90;;;;;;1922941;74;21136;-73
2021/03/22 12:39:01;;;;;;;5.50;0.75;;;7.40;99.90;;;;;;1920685;74;21143;-74
2021/03/22 12:41:27;;;;;;;3.47;1.02;;;7.60;99.90;;;;;;1923465;74;21187;-74
2021/03/22 12:43:53;;;;;;;3.58;1.17;;;7.40;99.90;;;;;;1930580;74;21470;-74
2021/03/22 12:46:19;;;;;;;4.40;1.32;;;7.30;99.90;;;;;;1924593;74;21591;-73